CheckWX is a tool to help pilots better visualize weather data.  It is not intended as a substitute for an official pre-flight weather briefing.

10:06:08 UTC

KSKF METAR
Kelly Field Airport
San Antonio, Texas, USA
Current

10 mins ago

KSKF 200956Z AUTO 00000KT 10SM CLR 04/03 A2994 RMK AO2 SLP141 T00350031 $
Observed
Feb-20 @ 09:56 UTC
Visibility
16,093 meters
Flight Rules
VFR
Cloud Levels
  • Clear skies
Temperature
C / 39°F
Dewpoint
C / 37°F
Humidity
93%
Altimeter
29.94" Hg
Pressure
1014.1 hPa
Previous

1 hour ago

KSKF 200901Z AUTO 32003KT 10SM SCT039 06/04 A2994 RMK AO2 SLP141 $
Observed
Feb-20 @ 09:01 UTC
Wind
  • 320° at 3 KTS
Visibility
16,093 meters
Flight Rules
VFR
Cloud Levels
  • Scattered at 3,900' AGL
Temperature
C / 43°F
Dewpoint
C / 39°F
Humidity
87%
Altimeter
29.94" Hg
Pressure
1014.1 hPa
Previous

1 hour ago

KSKF 200856Z AUTO 32004KT 10SM BKN039 06/05 A2994 RMK AO2 SLP141 T00600045 52005 $
Observed
Feb-20 @ 08:56 UTC
Wind
  • 320° at 4 KTS
Visibility
16,093 meters
Flight Rules
VFR
Cloud Levels
  • Broken at 3,900' AGL
Temperature
C / 43°F
Dewpoint
C / 41°F
Humidity
93%
Altimeter
29.94" Hg
Pressure
1014.1 hPa